sensor_id;sensor_type;location;lat;lon;timestamp;pressure;altitude;pressure_sealevel;temperature;humidity
54924;BME280;40825;52.270;20.984;2024-01-25T00:00:24;99443.93;;;5.64;100.00
54924;BME280;40825;52.270;20.984;2024-01-25T00:03:09;99440.45;;;5.62;100.00
54924;BME280;40825;52.270;20.984;2024-01-25T00:05:35;99436.52;;;5.61;100.00
54924;BME280;40825;52.270;20.984;2024-01-25T00:08:00;99439.79;;;5.59;100.00
54924;BME280;40825;52.270;20.984;2024-01-25T00:10:26;99443.98;;;5.58;100.00
54924;BME280;40825;52.270;20.984;2024-01-25T00:12:51;99438.36;;;5.59;100.00
54924;BME280;40825;52.270;20.984;2024-01-25T00:15:17;99439.05;;;5.58;100.00
54924;BME280;40825;52.270;20.984;2024-01-25T00:17:42;99437.69;;;5.57;100.00
54924;BME280;40825;52.270;20.984;2024-01-25T00:20:09;99445.45;;;5.56;100.00
54924;BME280;40825;52.270;20.984;2024-01-25T00:22:35;99433.62;;;5.54;100.00
54924;BME280;40825;52.270;20.984;2024-01-25T00:25:02;99437.80;;;5.53;100.00
54924;BME280;40825;52.270;20.984;2024-01-25T00:27:27;99440.96;;;5.53;100.00
54924;BME280;40825;52.270;20.984;2024-01-25T00:29:53;99443.06;;;5.52;100.00
54924;BME280;40825;52.270;20.984;2024-01-25T00:32:18;99437.16;;;5.51;100.00
54924;BME280;40825;52.270;20.984;2024-01-25T00:34:44;99447.96;;;5.49;100.00
54924;BME280;40825;52.270;20.984;2024-01-25T00:37:10;99440.06;;;5.49;100.00
54924;BME280;40825;52.270;20.984;2024-01-25T00:39:36;99447.98;;;5.47;100.00
54924;BME280;40825;52.270;20.984;2024-01-25T00:42:04;99451.06;;;5.47;100.00
54924;BME280;40825;52.270;20.984;2024-01-25T00:44:33;99451.21;;;5.45;100.00
54924;BME280;40825;52.270;20.984;2024-01-25T00:46:59;99456.53;;;5.42;100.00
54924;BME280;40825;52.270;20.984;2024-01-25T00:49:25;99460.07;;;5.39;100.00
54924;BME280;40825;52.270;20.984;2024-01-25T00:51:57;99465.23;;;5.34;100.00
54924;BME280;40825;52.270;20.984;2024-01-25T00:54:24;99459.92;;;5.30;100.00
54924;BME280;40825;52.270;20.984;2024-01-25T00:56:49;99463.70;;;5.26;100.00
54924;BME280;40825;52.270;20.984;2024-01-25T00:59:18;99462.98;;;5.21;100.00
54924;BME280;40825;52.270;20.984;2024-01-25T01:01:46;99463.88;;;5.17;100.00
54924;BME280;40825;52.270;20.984;2024-01-25T01:04:12;99461.48;;;5.12;100.00
54924;BME280;40825;52.270;20.984;2024-01-25T01:06:38;99460.64;;;5.08;100.00
54924;BME280;40825;52.270;20.984;2024-01-25T01:09:03;99464.42;;;5.04;100.00
54924;BME280;40825;52.270;20.984;2024-01-25T01:11:29;99459.13;;;5.00;100.00
54924;BME280;40825;52.270;20.984;2024-01-25T01:13:55;99460.08;;;4.96;100.00
54924;BME280;40825;52.270;20.984;2024-01-25T01:16:21;99466.02;;;4.95;100.00
54924;BME280;40825;52.270;20.984;2024-01-25T01:18:46;99465.36;;;4.93;100.00
54924;BME280;40825;52.270;20.984;2024-01-25T01:21:12;99461.15;;;4.91;100.00
54924;BME280;40825;52.270;20.984;2024-01-25T01:23:37;99456.36;;;4.90;100.00
54924;BME280;40825;52.270;20.984;2024-01-25T01:26:04;99461.08;;;4.90;100.00
54924;BME280;40825;52.270;20.984;2024-01-25T01:28:29;99453.71;;;4.90;100.00
54924;BME280;40825;52.270;20.984;2024-01-25T01:30:55;99455.48;;;4.91;100.00
54924;BME280;40825;52.270;20.984;2024-01-25T01:33:20;99452.98;;;4.93;100.00
54924;BME280;40825;52.270;20.984;2024-01-25T01:35:46;99456.13;;;4.95;100.00
54924;BME280;40825;52.270;20.984;2024-01-25T01:38:11;99453.42;;;4.98;100.00
54924;BME280;40825;52.270;20.984;2024-01-25T01:40:37;99463.70;;;4.99;100.00
54924;BME280;40825;52.270;20.984;2024-01-25T01:43:02;99459.65;;;5.00;100.00
54924;BME280;40825;52.270;20.984;2024-01-25T01:45:28;99466.98;;;5.02;100.00
54924;BME280;40825;52.270;20.984;2024-01-25T01:47:55;99462.77;;;5.03;100.00
54924;BME280;40825;52.270;20.984;2024-01-25T01:50:21;99459.48;;;5.04;100.00
54924;BME280;40825;52.270;20.984;2024-01-25T01:52:48;99461.42;;;5.06;100.00
54924;BME280;40825;52.270;20.984;2024-01-25T01:55:15;99460.04;;;5.06;100.00
54924;BME280;40825;52.270;20.984;2024-01-25T01:57:41;99454.20;;;5.04;100.00
54924;BME280;40825;52.270;20.984;2024-01-25T02:00:08;99455.84;;;5.05;100.00
54924;BME280;40825;52.270;20.984;2024-01-25T02:02:35;99453.02;;;5.07;100.00
54924;BME280;40825;52.270;20.984;2024-01-25T02:05:00;99449.65;;;5.07;100.00
54924;BME280;40825;52.270;20.984;2024-01-25T02:07:27;99454.09;;;5.10;100.00
54924;BME280;40825;52.270;20.984;2024-01-25T02:09:53;99450.80;;;5.11;100.00
54924;BME280;40825;52.270;20.984;2024-01-25T02:12:18;99450.32;;;5.14;100.00
54924;BME280;40825;52.270;20.984;2024-01-25T02:14:44;99453.11;;;5.15;100.00
54924;BME280;40825;52.270;20.984;2024-01-25T02:17:09;99448.86;;;5.17;100.00
54924;BME280;40825;52.270;20.984;2024-01-25T02:19:35;99451.14;;;5.19;100.00
54924;BME280;40825;52.270;20.984;2024-01-25T02:22:01;99450.10;;;5.20;100.00
54924;BME280;40825;52.270;20.984;2024-01-25T02:24:29;99458.17;;;5.22;100.00
54924;BME280;40825;52.270;20.984;2024-01-25T02:26:55;99462.27;;;5.23;100.00
54924;BME280;40825;52.270;20.984;2024-01-25T02:29:20;99460.36;;;5.23;100.00
54924;BME280;40825;52.270;20.984;2024-01-25T02:31:46;99469.98;;;5.22;100.00
54924;BME280;40825;52.270;20.984;2024-01-25T02:34:12;99462.88;;;5.19;100.00
54924;BME280;40825;52.270;20.984;2024-01-25T02:36:37;99466.88;;;5.18;100.00
54924;BME280;40825;52.270;20.984;2024-01-25T02:39:02;99465.98;;;5.15;100.00
54924;BME280;40825;52.270;20.984;2024-01-25T02:41:30;99469.95;;;5.15;100.00
54924;BME280;40825;52.270;20.984;2024-01-25T02:43:56;99464.48;;;5.13;100.00
54924;BME280;40825;52.270;20.984;2024-01-25T02:46:22;99469.40;;;5.09;100.00
54924;BME280;40825;52.270;20.984;2024-01-25T02:48:47;99468.92;;;5.07;100.00
54924;BME280;40825;52.270;20.984;2024-01-25T02:51:13;99470.11;;;5.04;100.00
54924;BME280;40825;52.270;20.984;2024-01-25T02:53:39;99471.75;;;5.01;100.00
54924;BME280;40825;52.270;20.984;2024-01-25T02:56:05;99471.32;;;4.96;100.00
54924;BME280;40825;52.270;20.984;2024-01-25T02:58:31;99465.29;;;4.94;100.00
54924;BME280;40825;52.270;20.984;2024-01-25T03:00:56;99465.04;;;4.91;100.00
54924;BME280;40825;52.270;20.984;2024-01-25T03:03:22;99473.16;;;4.90;100.00
54924;BME280;40825;52.270;20.984;2024-01-25T03:05:49;99471.13;;;4.87;100.00
54924;BME280;40825;52.270;20.984;2024-01-25T03:08:14;99471.36;;;4.85;100.00
54924;BME280;40825;52.270;20.984;2024-01-25T03:10:40;99472.22;;;4.83;100.00
54924;BME280;40825;52.270;20.984;2024-01-25T03:13:05;99470.72;;;4.80;100.00
54924;BME280;40825;52.270;20.984;2024-01-25T03:15:31;99471.48;;;4.80;100.00
54924;BME280;40825;52.270;20.984;2024-01-25T03:17:57;99474.42;;;4.78;100.00
54924;BME280;40825;52.270;20.984;2024-01-25T03:20:23;99479.08;;;4.78;100.00
54924;BME280;40825;52.270;20.984;2024-01-25T03:22:48;99473.41;;;4.77;100.00
54924;BME280;40825;52.270;20.984;2024-01-25T03:25:14;99474.98;;;4.75;100.00
54924;BME280;40825;52.270;20.984;2024-01-25T03:27:39;99476.38;;;4.74;100.00
54924;BME280;40825;52.270;20.984;2024-01-25T03:30:05;99484.11;;;4.74;100.00
54924;BME280;40825;52.270;20.984;2024-01-25T03:32:33;99481.38;;;4.73;100.00
54924;BME280;40825;52.270;20.984;2024-01-25T03:34:59;99491.79;;;4.73;100.00
54924;BME280;40825;52.270;20.984;2024-01-25T03:37:24;99495.72;;;4.73;100.00
54924;BME280;40825;52.270;20.984;2024-01-25T03:39:49;99485.45;;;4.72;100.00
54924;BME280;40825;52.270;20.984;2024-01-25T03:42:15;99488.19;;;4.71;100.00
54924;BME280;40825;52.270;20.984;2024-01-25T03:44:40;99488.07;;;4.70;100.00
54924;BME280;40825;52.270;20.984;2024-01-25T03:47:07;99494.05;;;4.68;100.00
54924;BME280;40825;52.270;20.984;2024-01-25T03:49:33;99488.36;;;4.66;100.00
54924;BME280;40825;52.270;20.984;2024-01-25T03:51:58;99487.74;;;4.63;100.00
54924;BME280;40825;52.270;20.984;2024-01-25T03:54:24;99495.58;;;4.61;100.00
54924;BME280;40825;52.270;20.984;2024-01-25T03:56:49;99484.75;;;4.60;100.00
54924;BME280;40825;52.270;20.984;2024-01-25T03:59:14;99486.23;;;4.58;100.00
54924;BME280;40825;52.270;20.984;2024-01-25T04:01:44;99476.02;;;4.57;100.00
54924;BME280;40825;52.270;20.984;2024-01-25T04:04:10;99477.23;;;4.55;100.00
54924;BME280;40825;52.270;20.984;2024-01-25T04:06:43;99479.17;;;4.53;100.00
54924;BME280;40825;52.270;20.984;2024-01-25T04:09:09;99478.95;;;4.52;100.00
54924;BME280;40825;52.270;20.984;2024-01-25T04:11:36;99488.47;;;4.52;100.00
54924;BME280;40825;52.270;20.984;2024-01-25T04:14:01;99483.30;;;4.53;100.00
54924;BME280;40825;52.270;20.984;2024-01-25T04:16:27;99483.53;;;4.53;100.00
54924;BME280;40825;52.270;20.984;2024-01-25T04:18:53;99482.75;;;4.55;100.00
54924;BME280;40825;52.270;20.984;2024-01-25T04:21:18;99489.13;;;4.56;100.00
54924;BME280;40825;52.270;20.984;2024-01-25T04:23:44;99491.08;;;4.58;100.00
54924;BME280;40825;52.270;20.984;2024-01-25T04:26:09;99490.65;;;4.58;100.00
54924;BME280;40825;52.270;20.984;2024-01-25T04:28:35;99494.45;;;4.59;100.00
54924;BME280;40825;52.270;20.984;2024-01-25T04:31:02;99496.09;;;4.58;100.00
54924;BME280;40825;52.270;20.984;2024-01-25T04:33:29;99491.64;;;4.59;100.00
54924;BME280;40825;52.270;20.984;2024-01-25T04:35:55;99490.27;;;4.58;100.00
54924;BME280;40825;52.270;20.984;2024-01-25T04:38:21;99494.10;;;4.57;100.00
54924;BME280;40825;52.270;20.984;2024-01-25T04:40:46;99494.67;;;4.55;100.00
54924;BME280;40825;52.270;20.984;2024-01-25T04:43:12;99500.98;;;4.54;100.00
54924;BME280;40825;52.270;20.984;2024-01-25T04:45:38;99502.01;;;4.52;100.00
54924;BME280;40825;52.270;20.984;2024-01-25T04:48:04;99502.90;;;4.52;100.00
54924;BME280;40825;52.270;20.984;2024-01-25T04:50:29;99506.02;;;4.50;100.00
54924;BME280;40825;52.270;20.984;2024-01-25T04:52:55;99504.22;;;4.49;100.00
54924;BME280;40825;52.270;20.984;2024-01-25T04:55:20;99509.90;;;4.48;100.00
54924;BME280;40825;52.270;20.984;2024-01-25T04:57:46;99515.45;;;4.49;100.00
54924;BME280;40825;52.270;20.984;2024-01-25T05:00:13;99516.73;;;4.48;100.00
54924;BME280;40825;52.270;20.984;2024-01-25T05:02:39;99519.20;;;4.47;100.00
54924;BME280;40825;52.270;20.984;2024-01-25T05:05:04;99519.23;;;4.47;100.00
54924;BME280;40825;52.270;20.984;2024-01-25T05:07:32;99523.52;;;4.48;100.00
54924;BME280;40825;52.270;20.984;2024-01-25T05:09:58;99519.37;;;4.48;100.00
54924;BME280;40825;52.270;20.984;2024-01-25T05:12:23;99524.80;;;4.50;100.00
54924;BME280;40825;52.270;20.984;2024-01-25T05:14:48;99529.91;;;4.50;100.00
54924;BME280;40825;52.270;20.984;2024-01-25T05:17:14;99523.26;;;4.53;100.00
54924;BME280;40825;52.270;20.984;2024-01-25T05:19:39;99524.05;;;4.56;100.00
54924;BME280;40825;52.270;20.984;2024-01-25T05:22:05;99534.40;;;4.58;100.00
54924;BME280;40825;52.270;20.984;2024-01-25T05:24:33;99526.57;;;4.58;100.00
54924;BME280;40825;52.270;20.984;2024-01-25T05:26:59;99531.60;;;4.60;100.00
54924;BME280;40825;52.270;20.984;2024-01-25T05:29:25;99534.01;;;4.63;100.00
54924;BME280;40825;52.270;20.984;2024-01-25T05:31:50;99538.49;;;4.65;100.00
54924;BME280;40825;52.270;20.984;2024-01-25T05:34:15;99535.92;;;4.66;100.00
54924;BME280;40825;52.270;20.984;2024-01-25T05:36:41;99540.04;;;4.67;100.00
54924;BME280;40825;52.270;20.984;2024-01-25T05:39:09;99541.24;;;4.69;100.00
54924;BME280;40825;52.270;20.984;2024-01-25T05:41:34;99544.11;;;4.70;100.00
54924;BME280;40825;52.270;20.984;2024-01-25T05:44:00;99541.94;;;4.71;100.00
54924;BME280;40825;52.270;20.984;2024-01-25T05:46:25;99547.61;;;4.72;100.00
54924;BME280;40825;52.270;20.984;2024-01-25T05:48:51;99543.77;;;4.73;100.00
54924;BME280;40825;52.270;20.984;2024-01-25T05:51:17;99549.51;;;4.74;100.00
54924;BME280;40825;52.270;20.984;2024-01-25T05:53:43;99551.02;;;4.76;100.00
54924;BME280;40825;52.270;20.984;2024-01-25T05:56:08;99553.73;;;4.77;100.00
54924;BME280;40825;52.270;20.984;2024-01-25T05:58:34;99548.16;;;4.80;100.00
54924;BME280;40825;52.270;20.984;2024-01-25T06:00:59;99558.27;;;4.80;100.00
54924;BME280;40825;52.270;20.984;2024-01-25T06:03:25;99565.44;;;4.81;100.00
54924;BME280;40825;52.270;20.984;2024-01-25T06:05:50;99562.95;;;4.83;100.00
54924;BME280;40825;52.270;20.984;2024-01-25T06:08:16;99566.39;;;4.84;100.00
54924;BME280;40825;52.270;20.984;2024-01-25T06:10:41;99570.77;;;4.84;100.00
54924;BME280;40825;52.270;20.984;2024-01-25T06:13:08;99567.63;;;4.86;100.00
54924;BME280;40825;52.270;20.984;2024-01-25T06:15:33;99575.26;;;4.86;100.00
54924;BME280;40825;52.270;20.984;2024-01-25T06:17:59;99578.95;;;4.86;100.00
54924;BME280;40825;52.270;20.984;2024-01-25T06:20:24;99578.99;;;4.88;100.00
54924;BME280;40825;52.270;20.984;2024-01-25T06:22:49;99578.06;;;4.90;100.00
54924;BME280;40825;52.270;20.984;2024-01-25T06:25:15;99582.13;;;4.88;100.00
54924;BME280;40825;52.270;20.984;2024-01-25T06:27:41;99582.48;;;4.88;100.00
54924;BME280;40825;52.270;20.984;2024-01-25T06:30:06;99578.42;;;4.88;100.00
54924;BME280;40825;52.270;20.984;2024-01-25T06:32:35;99577.95;;;4.89;100.00
54924;BME280;40825;52.270;20.984;2024-01-25T06:35:01;99580.45;;;4.89;100.00
54924;BME280;40825;52.270;20.984;2024-01-25T06:37:26;99582.03;;;4.89;100.00
54924;BME280;40825;52.270;20.984;2024-01-25T06:39:52;99579.96;;;4.90;100.00
54924;BME280;40825;52.270;20.984;2024-01-25T06:42:18;99575.05;;;4.90;100.00
54924;BME280;40825;52.270;20.984;2024-01-25T06:44:44;99574.63;;;4.92;100.00
54924;BME280;40825;52.270;20.984;2024-01-25T06:47:09;99578.79;;;4.92;100.00
54924;BME280;40825;52.270;20.984;2024-01-25T06:49:36;99583.32;;;4.93;100.00
54924;BME280;40825;52.270;20.984;2024-01-25T06:52:02;99584.39;;;4.91;100.00
54924;BME280;40825;52.270;20.984;2024-01-25T06:54:28;99584.64;;;4.89;100.00
54924;BME280;40825;52.270;20.984;2024-01-25T06:56:54;99585.62;;;4.84;100.00
54924;BME280;40825;52.270;20.984;2024-01-25T06:59:22;99582.90;;;4.79;100.00
54924;BME280;40825;52.270;20.984;2024-01-25T07:01:49;99584.50;;;4.76;100.00
54924;BME280;40825;52.270;20.984;2024-01-25T07:04:15;99593.46;;;4.73;100.00
54924;BME280;40825;52.270;20.984;2024-01-25T07:06:40;99602.11;;;4.72;100.00
54924;BME280;40825;52.270;20.984;2024-01-25T07:09:06;99602.85;;;4.70;100.00
54924;BME280;40825;52.270;20.984;2024-01-25T07:11:32;99601.53;;;4.67;100.00
54924;BME280;40825;52.270;20.984;2024-01-25T07:13:58;99607.26;;;4.66;100.00
54924;BME280;40825;52.270;20.984;2024-01-25T07:16:23;99609.58;;;4.64;100.00
54924;BME280;40825;52.270;20.984;2024-01-25T07:18:49;99608.27;;;4.62;100.00
54924;BME280;40825;52.270;20.984;2024-01-25T07:21:15;99608.06;;;4.61;100.00
54924;BME280;40825;52.270;20.984;2024-01-25T07:23:41;99607.68;;;4.60;100.00
54924;BME280;40825;52.270;20.984;2024-01-25T07:26:06;99605.48;;;4.56;100.00
54924;BME280;40825;52.270;20.984;2024-01-25T07:28:32;99603.08;;;4.53;100.00
54924;BME280;40825;52.270;20.984;2024-01-25T07:30:57;99608.23;;;4.53;100.00
54924;BME280;40825;52.270;20.984;2024-01-25T07:33:23;99612.36;;;4.52;100.00
54924;BME280;40825;52.270;20.984;2024-01-25T07:35:49;99617.04;;;4.51;100.00
54924;BME280;40825;52.270;20.984;2024-01-25T07:38:15;99618.74;;;4.52;100.00
54924;BME280;40825;52.270;20.984;2024-01-25T07:40:41;99618.78;;;4.51;100.00
54924;BME280;40825;52.270;20.984;2024-01-25T07:43:07;99618.67;;;4.51;100.00
54924;BME280;40825;52.270;20.984;2024-01-25T07:45:33;99618.88;;;4.51;100.00
54924;BME280;40825;52.270;20.984;2024-01-25T07:47:59;99619.44;;;4.50;100.00
54924;BME280;40825;52.270;20.984;2024-01-25T07:50:25;99616.63;;;4.52;100.00
54924;BME280;40825;52.270;20.984;2024-01-25T07:52:50;99622.90;;;4.52;100.00
54924;BME280;40825;52.270;20.984;2024-01-25T07:55:16;99624.42;;;4.53;100.00
54924;BME280;40825;52.270;20.984;2024-01-25T07:57:42;99620.65;;;4.55;100.00
54924;BME280;40825;52.270;20.984;2024-01-25T08:00:08;99623.17;;;4.58;100.00
54924;BME280;40825;52.270;20.984;2024-01-25T08:02:35;99628.98;;;4.60;100.00
54924;BME280;40825;52.270;20.984;2024-01-25T08:05:01;99627.36;;;4.61;100.00
54924;BME280;40825;52.270;20.984;2024-01-25T08:07:28;99632.88;;;4.63;100.00
54924;BME280;40825;52.270;20.984;2024-01-25T08:09:53;99631.79;;;4.61;100.00
54924;BME280;40825;52.270;20.984;2024-01-25T08:12:24;99629.43;;;4.63;100.00
54924;BME280;40825;52.270;20.984;2024-01-25T08:14:50;99629.35;;;4.63;100.00
54924;BME280;40825;52.270;20.984;2024-01-25T08:17:15;99634.27;;;4.61;100.00
54924;BME280;40825;52.270;20.984;2024-01-25T08:19:40;99631.86;;;4.61;100.00
54924;BME280;40825;52.270;20.984;2024-01-25T08:22:06;99629.85;;;4.61;100.00
54924;BME280;40825;52.270;20.984;2024-01-25T08:24:31;99633.64;;;4.60;100.00
54924;BME280;40825;52.270;20.984;2024-01-25T08:26:57;99635.48;;;4.61;100.00
54924;BME280;40825;52.270;20.984;2024-01-25T08:29:22;99639.52;;;4.63;100.00
54924;BME280;40825;52.270;20.984;2024-01-25T08:31:48;99645.76;;;4.64;100.00
54924;BME280;40825;52.270;20.984;2024-01-25T08:34:13;99645.92;;;4.64;100.00
54924;BME280;40825;52.270;20.984;2024-01-25T08:36:39;99646.33;;;4.65;100.00
54924;BME280;40825;52.270;20.984;2024-01-25T08:39:04;99647.51;;;4.66;100.00
54924;BME280;40825;52.270;20.984;2024-01-25T08:41:31;99648.17;;;4.65;100.00
54924;BME280;40825;52.270;20.984;2024-01-25T08:43:56;99651.64;;;4.65;100.00
54924;BME280;40825;52.270;20.984;2024-01-25T08:46:21;99653.36;;;4.66;100.00
54924;BME280;40825;52.270;20.984;2024-01-25T08:48:47;99656.90;;;4.64;100.00
54924;BME280;40825;52.270;20.984;2024-01-25T08:51:13;99657.05;;;4.64;100.00
54924;BME280;40825;52.270;20.984;2024-01-25T08:53:38;99665.08;;;4.62;100.00
54924;BME280;40825;52.270;20.984;2024-01-25T08:56:04;99670.46;;;4.61;100.00
54924;BME280;40825;52.270;20.984;2024-01-25T08:58:31;99674.10;;;4.58;100.00
54924;BME280;40825;52.270;20.984;2024-01-25T09:00:56;99674.00;;;4.57;100.00
54924;BME280;40825;52.270;20.984;2024-01-25T09:03:22;99679.63;;;4.54;100.00
54924;BME280;40825;52.270;20.984;2024-01-25T09:05:49;99681.73;;;4.56;100.00
54924;BME280;40825;52.270;20.984;2024-01-25T09:08:16;99694.82;;;4.57;100.00
54924;BME280;40825;52.270;20.984;2024-01-25T09:10:42;99700.34;;;4.57;100.00
54924;BME280;40825;52.270;20.984;2024-01-25T09:13:09;99706.39;;;4.58;100.00
54924;BME280;40825;52.270;20.984;2024-01-25T09:15:35;99717.73;;;4.56;100.00
54924;BME280;40825;52.270;20.984;2024-01-25T09:18:00;99720.70;;;4.56;100.00
54924;BME280;40825;52.270;20.984;2024-01-25T09:20:26;99722.54;;;4.57;100.00
54924;BME280;40825;52.270;20.984;2024-01-25T09:22:52;99730.42;;;4.60;100.00
54924;BME280;40825;52.270;20.984;2024-01-25T09:25:20;99727.83;;;4.60;100.00
54924;BME280;40825;52.270;20.984;2024-01-25T09:27:47;99722.59;;;4.63;100.00
54924;BME280;40825;52.270;20.984;2024-01-25T09:30:13;99727.92;;;4.61;100.00
54924;BME280;40825;52.270;20.984;2024-01-25T09:32:39;99732.28;;;4.61;100.00
54924;BME280;40825;52.270;20.984;2024-01-25T09:35:05;99737.34;;;4.62;100.00
54924;BME280;40825;52.270;20.984;2024-01-25T09:37:30;99737.83;;;4.63;100.00
54924;BME280;40825;52.270;20.984;2024-01-25T09:39:56;99737.00;;;4.68;100.00
54924;BME280;40825;52.270;20.984;2024-01-25T09:42:24;99739.55;;;4.67;100.00
54924;BME280;40825;52.270;20.984;2024-01-25T09:44:50;99746.80;;;4.68;100.00
54924;BME280;40825;52.270;20.984;2024-01-25T09:47:17;99752.59;;;4.69;100.00
54924;BME280;40825;52.270;20.984;2024-01-25T09:49:44;99754.77;;;4.70;100.00
54924;BME280;40825;52.270;20.984;2024-01-25T09:52:12;99754.95;;;4.72;100.00
54924;BME280;40825;52.270;20.984;2024-01-25T09:54:38;99752.73;;;4.73;100.00
54924;BME280;40825;52.270;20.984;2024-01-25T09:57:15;99756.70;;;4.73;100.00
54924;BME280;40825;52.270;20.984;2024-01-25T09:59:45;99756.21;;;4.75;100.00
54924;BME280;40825;52.270;20.984;2024-01-25T10:02:11;99762.04;;;4.76;100.00
54924;BME280;40825;52.270;20.984;2024-01-25T10:04:38;99767.85;;;4.78;100.00
54924;BME280;40825;52.270;20.984;2024-01-25T10:07:03;99771.94;;;4.81;100.00
54924;BME280;40825;52.270;20.984;2024-01-25T10:09:38;99776.10;;;4.83;100.00
54924;BME280;40825;52.270;20.984;2024-01-25T10:12:04;99779.63;;;4.83;100.00
54924;BME280;40825;52.270;20.984;2024-01-25T10:14:30;99782.49;;;4.79;100.00
54924;BME280;40825;52.270;20.984;2024-01-25T10:16:58;99788.38;;;4.79;100.00
54924;BME280;40825;52.270;20.984;2024-01-25T10:19:25;99786.23;;;4.79;100.00
54924;BME280;40825;52.270;20.984;2024-01-25T10:21:50;99788.98;;;4.86;100.00
54924;BME280;40825;52.270;20.984;2024-01-25T10:24:16;99788.45;;;4.86;100.00
54924;BME280;40825;52.270;20.984;2024-01-25T10:26:41;99787.63;;;4.87;100.00
54924;BME280;40825;52.270;20.984;2024-01-25T10:29:09;99784.55;;;4.88;100.00
54924;BME280;40825;52.270;20.984;2024-01-25T10:31:39;99787.86;;;4.88;100.00
54924;BME280;40825;52.270;20.984;2024-01-25T10:34:11;99790.00;;;4.91;100.00
54924;BME280;40825;52.270;20.984;2024-01-25T10:36:39;99790.52;;;4.94;100.00
54924;BME280;40825;52.270;20.984;2024-01-25T10:39:07;99791.06;;;5.00;100.00
54924;BME280;40825;52.270;20.984;2024-01-25T10:41:34;99791.48;;;5.05;100.00
54924;BME280;40825;52.270;20.984;2024-01-25T10:44:01;99797.39;;;5.11;100.00
54924;BME280;40825;52.270;20.984;2024-01-25T10:46:30;99797.90;;;5.14;100.00
54924;BME280;40825;52.270;20.984;2024-01-25T10:49:00;99801.17;;;5.13;100.00
54924;BME280;40825;52.270;20.984;2024-01-25T10:51:28;99803.23;;;5.12;100.00
54924;BME280;40825;52.270;20.984;2024-01-25T10:53:55;99808.19;;;5.14;100.00
54924;BME280;40825;52.270;20.984;2024-01-25T10:56:20;99806.52;;;5.15;100.00
54924;BME280;40825;52.270;20.984;2024-01-25T10:58:46;99816.23;;;5.11;100.00
54924;BME280;40825;52.270;20.984;2024-01-25T11:01:12;99817.77;;;5.12;100.00
54924;BME280;40825;52.270;20.984;2024-01-25T11:03:39;99823.14;;;5.13;100.00
54924;BME280;40825;52.270;20.984;2024-01-25T11:06:09;99820.91;;;5.17;100.00
54924;BME280;40825;52.270;20.984;2024-01-25T11:08:36;99821.89;;;5.24;100.00
54924;BME280;40825;52.270;20.984;2024-01-25T11:11:10;99818.44;;;5.27;100.00
54924;BME280;40825;52.270;20.984;2024-01-25T11:13:40;99824.36;;;5.28;100.00
54924;BME280;40825;52.270;20.984;2024-01-25T11:16:16;99824.08;;;5.30;100.00
54924;BME280;40825;52.270;20.984;2024-01-25T11:18:53;99828.32;;;5.30;100.00
54924;BME280;40825;52.270;20.984;2024-01-25T11:21:37;99829.48;;;5.30;100.00
54924;BME280;40825;52.270;20.984;2024-01-25T11:24:04;99833.04;;;5.33;100.00
54924;BME280;40825;52.270;20.984;2024-01-25T11:26:34;99833.23;;;5.35;100.00
54924;BME280;40825;52.270;20.984;2024-01-25T11:28:59;99840.46;;;5.32;100.00
54924;BME280;40825;52.270;20.984;2024-01-25T11:31:27;99844.75;;;5.33;100.00
54924;BME280;40825;52.270;20.984;2024-01-25T11:34:00;99838.35;;;5.35;100.00
54924;BME280;40825;52.270;20.984;2024-01-25T11:36:27;99839.69;;;5.35;100.00
54924;BME280;40825;52.270;20.984;2024-01-25T11:38:53;99842.94;;;5.40;100.00
54924;BME280;40825;52.270;20.984;2024-01-25T11:41:19;99847.90;;;5.43;100.00
54924;BME280;40825;52.270;20.984;2024-01-25T11:43:47;99845.50;;;5.47;100.00
54924;BME280;40825;52.270;20.984;2024-01-25T11:46:16;99850.05;;;5.50;100.00
54924;BME280;40825;52.270;20.984;2024-01-25T11:48:44;99853.70;;;5.56;100.00
54924;BME280;40825;52.270;20.984;2024-01-25T11:51:10;99862.63;;;5.58;100.00
54924;BME280;40825;52.270;20.984;2024-01-25T11:53:36;99868.19;;;5.59;100.00
54924;BME280;40825;52.270;20.984;2024-01-25T11:56:04;99868.13;;;5.58;100.00
54924;BME280;40825;52.270;20.984;2024-01-25T11:58:32;99879.66;;;5.54;100.00
54924;BME280;40825;52.270;20.984;2024-01-25T12:00:58;99875.52;;;5.53;100.00
54924;BME280;40825;52.270;20.984;2024-01-25T12:03:25;99878.83;;;5.53;100.00
54924;BME280;40825;52.270;20.984;2024-01-25T12:05:51;99882.05;;;5.51;100.00
54924;BME280;40825;52.270;20.984;2024-01-25T12:08:17;99888.75;;;5.48;100.00
54924;BME280;40825;52.270;20.984;2024-01-25T12:10:42;99894.65;;;5.41;100.00
54924;BME280;40825;52.270;20.984;2024-01-25T12:13:09;99905.92;;;5.36;100.00
54924;BME280;40825;52.270;20.984;2024-01-25T12:15:35;99915.33;;;5.31;100.00
54924;BME280;40825;52.270;20.984;2024-01-25T12:18:00;99924.33;;;5.28;100.00
54924;BME280;40825;52.270;20.984;2024-01-25T12:20:28;99933.30;;;5.22;100.00
54924;BME280;40825;52.270;20.984;2024-01-25T12:22:54;99949.84;;;5.09;100.00
54924;BME280;40825;52.270;20.984;2024-01-25T12:25:21;99964.27;;;5.01;100.00
54924;BME280;40825;52.270;20.984;2024-01-25T12:27:47;99969.63;;;4.92;100.00
54924;BME280;40825;52.270;20.984;2024-01-25T12:30:15;99976.92;;;4.73;100.00
54924;BME280;40825;52.270;20.984;2024-01-25T12:32:40;99990.33;;;4.52;100.00
54924;BME280;40825;52.270;20.984;2024-01-25T12:35:06;99995.31;;;4.35;100.00
54924;BME280;40825;52.270;20.984;2024-01-25T12:37:33;100002.29;;;4.25;100.00
54924;BME280;40825;52.270;20.984;2024-01-25T12:39:58;100007.67;;;4.16;100.00
54924;BME280;40825;52.270;20.984;2024-01-25T12:42:24;100008.87;;;4.09;100.00
54924;BME280;40825;52.270;20.984;2024-01-25T12:44:52;100016.01;;;4.03;100.00